sensor_id;sensor_type;location;lat;lon;timestamp;P1;durP1;ratioP1;P2;durP2;ratioP2
5077;SDS011;2557;51.390;7.494;2023-07-31T00:00:02;9.00;;;4.60;;
5077;SDS011;2557;51.390;7.494;2023-07-31T00:02:28;6.73;;;5.37;;
5077;SDS011;2557;51.390;7.494;2023-07-31T00:04:54;9.33;;;5.20;;
5077;SDS011;2557;51.390;7.494;2023-07-31T00:07:20;7.03;;;5.03;;
5077;SDS011;2557;51.390;7.494;2023-07-31T00:09:46;8.00;;;4.97;;
5077;SDS011;2557;51.390;7.494;2023-07-31T00:12:12;9.63;;;5.80;;
5077;SDS011;2557;51.390;7.494;2023-07-31T00:14:38;6.90;;;5.77;;
5077;SDS011;2557;51.390;7.494;2023-07-31T00:17:04;6.03;;;5.20;;
5077;SDS011;2557;51.390;7.494;2023-07-31T00:19:30;8.03;;;5.60;;
5077;SDS011;2557;51.390;7.494;2023-07-31T00:21:56;6.57;;;4.80;;
5077;SDS011;2557;51.390;7.494;2023-07-31T00:24:22;10.73;;;5.20;;
5077;SDS011;2557;51.390;7.494;2023-07-31T00:26:48;14.40;;;4.67;;
5077;SDS011;2557;51.390;7.494;2023-07-31T00:29:14;9.47;;;5.93;;
5077;SDS011;2557;51.390;7.494;2023-07-31T00:31:40;6.73;;;5.03;;
5077;SDS011;2557;51.390;7.494;2023-07-31T00:34:06;10.07;;;5.53;;
5077;SDS011;2557;51.390;7.494;2023-07-31T00:36:32;7.00;;;5.07;;
5077;SDS011;2557;51.390;7.494;2023-07-31T00:38:58;8.67;;;4.50;;
5077;SDS011;2557;51.390;7.494;2023-07-31T00:41:24;6.87;;;5.33;;
5077;SDS011;2557;51.390;7.494;2023-07-31T00:43:50;7.10;;;4.33;;
5077;SDS011;2557;51.390;7.494;2023-07-31T00:46:16;8.97;;;5.20;;
5077;SDS011;2557;51.390;7.494;2023-07-31T00:48:42;6.00;;;4.10;;
5077;SDS011;2557;51.390;7.494;2023-07-31T00:51:08;7.27;;;5.30;;
5077;SDS011;2557;51.390;7.494;2023-07-31T00:53:35;10.77;;;5.30;;
5077;SDS011;2557;51.390;7.494;2023-07-31T00:56:01;6.47;;;4.60;;
5077;SDS011;2557;51.390;7.494;2023-07-31T00:58:27;8.57;;;5.40;;
5077;SDS011;2557;51.390;7.494;2023-07-31T01:00:53;11.67;;;5.67;;
5077;SDS011;2557;51.390;7.494;2023-07-31T01:03:19;12.50;;;6.80;;
5077;SDS011;2557;51.390;7.494;2023-07-31T01:10:59;13.37;;;6.73;;
5077;SDS011;2557;51.390;7.494;2023-07-31T01:13:26;9.50;;;5.50;;
5077;SDS011;2557;51.390;7.494;2023-07-31T01:15:52;11.43;;;5.47;;
5077;SDS011;2557;51.390;7.494;2023-07-31T01:18:18;9.30;;;6.17;;
5077;SDS011;2557;51.390;7.494;2023-07-31T01:20:44;10.90;;;6.30;;
5077;SDS011;2557;51.390;7.494;2023-07-31T01:26:10;12.13;;;5.63;;
5077;SDS011;2557;51.390;7.494;2023-07-31T01:28:58;12.23;;;5.63;;
5077;SDS011;2557;51.390;7.494;2023-07-31T01:31:24;11.23;;;5.70;;
5077;SDS011;2557;51.390;7.494;2023-07-31T01:33:53;11.40;;;5.50;;
5077;SDS011;2557;51.390;7.494;2023-07-31T01:36:19;15.80;;;6.20;;
5077;SDS011;2557;51.390;7.494;2023-07-31T01:38:45;10.33;;;5.00;;
5077;SDS011;2557;51.390;7.494;2023-07-31T01:41:11;11.40;;;5.10;;
5077;SDS011;2557;51.390;7.494;2023-07-31T01:43:38;11.33;;;5.70;;
5077;SDS011;2557;51.390;7.494;2023-07-31T01:46:04;13.80;;;5.63;;
5077;SDS011;2557;51.390;7.494;2023-07-31T01:48:30;11.87;;;5.53;;
5077;SDS011;2557;51.390;7.494;2023-07-31T01:51:00;9.43;;;5.60;;
5077;SDS011;2557;51.390;7.494;2023-07-31T01:53:27;8.97;;;4.87;;
5077;SDS011;2557;51.390;7.494;2023-07-31T01:55:53;8.43;;;4.80;;
5077;SDS011;2557;51.390;7.494;2023-07-31T01:58:19;8.23;;;4.60;;
5077;SDS011;2557;51.390;7.494;2023-07-31T02:00:45;13.40;;;4.50;;
5077;SDS011;2557;51.390;7.494;2023-07-31T02:03:11;11.97;;;7.47;;
5077;SDS011;2557;51.390;7.494;2023-07-31T02:05:44;11.20;;;5.40;;
5077;SDS011;2557;51.390;7.494;2023-07-31T02:08:10;9.00;;;5.10;;
5077;SDS011;2557;51.390;7.494;2023-07-31T02:10:36;8.80;;;4.83;;
5077;SDS011;2557;51.390;7.494;2023-07-31T02:13:02;8.67;;;5.07;;
5077;SDS011;2557;51.390;7.494;2023-07-31T02:15:29;14.10;;;5.87;;
5077;SDS011;2557;51.390;7.494;2023-07-31T02:17:55;11.90;;;5.00;;
5077;SDS011;2557;51.390;7.494;2023-07-31T02:20:24;9.07;;;5.40;;
5077;SDS011;2557;51.390;7.494;2023-07-31T02:22:50;8.00;;;4.40;;
5077;SDS011;2557;51.390;7.494;2023-07-31T02:25:16;19.50;;;5.10;;
5077;SDS011;2557;51.390;7.494;2023-07-31T02:27:42;11.50;;;5.17;;
5077;SDS011;2557;51.390;7.494;2023-07-31T02:30:09;7.03;;;4.97;;
5077;SDS011;2557;51.390;7.494;2023-07-31T02:32:35;11.93;;;5.87;;
5077;SDS011;2557;51.390;7.494;2023-07-31T02:35:01;11.17;;;5.97;;
5077;SDS011;2557;51.390;7.494;2023-07-31T02:37:27;15.97;;;5.70;;
5077;SDS011;2557;51.390;7.494;2023-07-31T02:39:54;8.13;;;4.60;;
5077;SDS011;2557;51.390;7.494;2023-07-31T02:42:20;9.90;;;4.70;;
5077;SDS011;2557;51.390;7.494;2023-07-31T02:44:46;12.07;;;5.00;;
5077;SDS011;2557;51.390;7.494;2023-07-31T02:47:12;13.20;;;5.10;;
5077;SDS011;2557;51.390;7.494;2023-07-31T02:49:38;11.50;;;4.83;;
5077;SDS011;2557;51.390;7.494;2023-07-31T02:52:04;9.10;;;4.13;;
5077;SDS011;2557;51.390;7.494;2023-07-31T02:54:30;6.43;;;5.03;;
5077;SDS011;2557;51.390;7.494;2023-07-31T02:56:56;11.30;;;5.13;;
5077;SDS011;2557;51.390;7.494;2023-07-31T02:59:22;11.40;;;5.57;;
5077;SDS011;2557;51.390;7.494;2023-07-31T03:01:48;12.00;;;5.60;;
5077;SDS011;2557;51.390;7.494;2023-07-31T03:04:14;11.83;;;6.13;;
5077;SDS011;2557;51.390;7.494;2023-07-31T03:06:40;12.07;;;5.20;;
5077;SDS011;2557;51.390;7.494;2023-07-31T03:09:06;12.33;;;5.40;;
5077;SDS011;2557;51.390;7.494;2023-07-31T03:11:32;14.77;;;5.37;;
5077;SDS011;2557;51.390;7.494;2023-07-31T03:13:58;11.53;;;5.00;;
5077;SDS011;2557;51.390;7.494;2023-07-31T03:16:24;12.13;;;5.90;;
5077;SDS011;2557;51.390;7.494;2023-07-31T03:18:50;8.90;;;4.73;;
5077;SDS011;2557;51.390;7.494;2023-07-31T03:21:16;11.13;;;5.17;;
5077;SDS011;2557;51.390;7.494;2023-07-31T03:23:42;10.37;;;5.07;;
5077;SDS011;2557;51.390;7.494;2023-07-31T03:26:08;14.63;;;5.80;;
5077;SDS011;2557;51.390;7.494;2023-07-31T03:28:34;7.50;;;4.93;;
5077;SDS011;2557;51.390;7.494;2023-07-31T03:31:00;8.10;;;4.57;;
5077;SDS011;2557;51.390;7.494;2023-07-31T03:33:26;9.27;;;4.90;;
5077;SDS011;2557;51.390;7.494;2023-07-31T03:35:52;13.80;;;5.20;;
5077;SDS011;2557;51.390;7.494;2023-07-31T03:38:18;17.87;;;5.17;;
5077;SDS011;2557;51.390;7.494;2023-07-31T03:40:44;11.70;;;4.90;;
5077;SDS011;2557;51.390;7.494;2023-07-31T03:43:11;6.03;;;3.87;;
5077;SDS011;2557;51.390;7.494;2023-07-31T03:45:37;8.30;;;4.57;;
5077;SDS011;2557;51.390;7.494;2023-07-31T03:48:03;11.80;;;5.60;;
5077;SDS011;2557;51.390;7.494;2023-07-31T03:50:30;10.30;;;4.67;;
5077;SDS011;2557;51.390;7.494;2023-07-31T03:52:56;8.03;;;4.67;;
5077;SDS011;2557;51.390;7.494;2023-07-31T03:55:22;7.80;;;4.60;;
5077;SDS011;2557;51.390;7.494;2023-07-31T03:57:48;7.50;;;4.50;;
5077;SDS011;2557;51.390;7.494;2023-07-31T04:00:14;9.00;;;4.70;;
5077;SDS011;2557;51.390;7.494;2023-07-31T04:02:40;9.33;;;4.80;;
5077;SDS011;2557;51.390;7.494;2023-07-31T04:05:06;9.73;;;4.60;;
5077;SDS011;2557;51.390;7.494;2023-07-31T04:07:32;8.17;;;6.13;;
5077;SDS011;2557;51.390;7.494;2023-07-31T04:09:58;8.97;;;4.53;;
5077;SDS011;2557;51.390;7.494;2023-07-31T04:12:24;14.80;;;4.83;;
5077;SDS011;2557;51.390;7.494;2023-07-31T04:14:50;9.63;;;4.60;;
5077;SDS011;2557;51.390;7.494;2023-07-31T04:17:17;8.83;;;5.30;;
5077;SDS011;2557;51.390;7.494;2023-07-31T04:19:43;11.67;;;4.60;;
5077;SDS011;2557;51.390;7.494;2023-07-31T04:22:09;9.30;;;6.23;;
5077;SDS011;2557;51.390;7.494;2023-07-31T04:24:35;8.27;;;5.50;;
5077;SDS011;2557;51.390;7.494;2023-07-31T04:27:01;7.87;;;5.00;;
5077;SDS011;2557;51.390;7.494;2023-07-31T04:29:27;9.57;;;5.40;;
5077;SDS011;2557;51.390;7.494;2023-07-31T04:31:53;7.07;;;5.83;;
5077;SDS011;2557;51.390;7.494;2023-07-31T04:34:19;8.33;;;5.47;;
5077;SDS011;2557;51.390;7.494;2023-07-31T04:36:45;8.70;;;4.23;;
5077;SDS011;2557;51.390;7.494;2023-07-31T04:39:11;11.87;;;5.37;;
5077;SDS011;2557;51.390;7.494;2023-07-31T04:41:37;10.87;;;5.77;;
5077;SDS011;2557;51.390;7.494;2023-07-31T04:44:03;6.77;;;4.80;;
5077;SDS011;2557;51.390;7.494;2023-07-31T04:46:29;12.67;;;6.07;;
5077;SDS011;2557;51.390;7.494;2023-07-31T04:48:56;10.10;;;4.30;;
5077;SDS011;2557;51.390;7.494;2023-07-31T04:51:22;8.03;;;5.60;;
5077;SDS011;2557;51.390;7.494;2023-07-31T04:53:48;9.40;;;4.70;;
5077;SDS011;2557;51.390;7.494;2023-07-31T04:56:14;10.53;;;4.90;;
5077;SDS011;2557;51.390;7.494;2023-07-31T04:58:40;8.23;;;4.83;;
5077;SDS011;2557;51.390;7.494;2023-07-31T05:01:06;7.17;;;5.20;;
5077;SDS011;2557;51.390;7.494;2023-07-31T05:03:32;9.13;;;4.87;;
5077;SDS011;2557;51.390;7.494;2023-07-31T05:05:58;13.27;;;5.60;;
5077;SDS011;2557;51.390;7.494;2023-07-31T05:08:24;11.83;;;5.33;;
5077;SDS011;2557;51.390;7.494;2023-07-31T05:10:51;9.20;;;5.63;;
5077;SDS011;2557;51.390;7.494;2023-07-31T05:13:17;13.40;;;4.33;;
5077;SDS011;2557;51.390;7.494;2023-07-31T05:15:43;7.00;;;5.10;;
5077;SDS011;2557;51.390;7.494;2023-07-31T05:18:09;14.60;;;5.20;;
5077;SDS011;2557;51.390;7.494;2023-07-31T05:20:35;9.53;;;5.93;;
5077;SDS011;2557;51.390;7.494;2023-07-31T05:23:01;14.23;;;6.23;;
5077;SDS011;2557;51.390;7.494;2023-07-31T05:25:27;10.53;;;6.77;;
5077;SDS011;2557;51.390;7.494;2023-07-31T05:27:52;9.30;;;5.60;;
5077;SDS011;2557;51.390;7.494;2023-07-31T05:30:18;8.60;;;5.50;;
5077;SDS011;2557;51.390;7.494;2023-07-31T05:32:46;9.07;;;5.53;;
5077;SDS011;2557;51.390;7.494;2023-07-31T05:35:12;9.23;;;5.77;;
5077;SDS011;2557;51.390;7.494;2023-07-31T05:37:38;13.97;;;5.53;;
5077;SDS011;2557;51.390;7.494;2023-07-31T05:40:04;8.33;;;4.80;;
5077;SDS011;2557;51.390;7.494;2023-07-31T05:42:30;7.93;;;5.63;;
5077;SDS011;2557;51.390;7.494;2023-07-31T05:44:56;8.33;;;6.83;;
5077;SDS011;2557;51.390;7.494;2023-07-31T05:47:22;12.40;;;5.33;;
5077;SDS011;2557;51.390;7.494;2023-07-31T05:49:48;8.70;;;6.00;;
5077;SDS011;2557;51.390;7.494;2023-07-31T05:52:17;9.73;;;6.10;;
5077;SDS011;2557;51.390;7.494;2023-07-31T05:54:43;8.90;;;6.43;;
5077;SDS011;2557;51.390;7.494;2023-07-31T05:57:10;9.77;;;5.70;;
5077;SDS011;2557;51.390;7.494;2023-07-31T05:59:37;11.10;;;7.17;;
5077;SDS011;2557;51.390;7.494;2023-07-31T06:02:03;10.03;;;5.63;;
5077;SDS011;2557;51.390;7.494;2023-07-31T06:04:29;12.90;;;6.17;;
5077;SDS011;2557;51.390;7.494;2023-07-31T06:06:55;8.70;;;5.07;;
5077;SDS011;2557;51.390;7.494;2023-07-31T06:09:21;9.87;;;5.80;;
5077;SDS011;2557;51.390;7.494;2023-07-31T06:11:47;10.60;;;6.43;;
5077;SDS011;2557;51.390;7.494;2023-07-31T06:14:13;12.03;;;5.50;;
5077;SDS011;2557;51.390;7.494;2023-07-31T06:16:39;9.30;;;5.93;;
5077;SDS011;2557;51.390;7.494;2023-07-31T06:19:06;6.27;;;4.90;;
5077;SDS011;2557;51.390;7.494;2023-07-31T06:21:32;7.90;;;5.60;;
5077;SDS011;2557;51.390;7.494;2023-07-31T06:23:58;11.10;;;6.47;;
5077;SDS011;2557;51.390;7.494;2023-07-31T06:26:24;9.07;;;5.30;;
5077;SDS011;2557;51.390;7.494;2023-07-31T06:28:51;20.87;;;6.60;;
5077;SDS011;2557;51.390;7.494;2023-07-31T06:31:17;11.80;;;5.67;;
5077;SDS011;2557;51.390;7.494;2023-07-31T06:33:45;10.50;;;6.40;;
5077;SDS011;2557;51.390;7.494;2023-07-31T06:36:11;10.50;;;6.90;;
5077;SDS011;2557;51.390;7.494;2023-07-31T06:38:37;11.47;;;6.37;;
5077;SDS011;2557;51.390;7.494;2023-07-31T06:41:03;11.70;;;6.63;;
5077;SDS011;2557;51.390;7.494;2023-07-31T06:43:29;11.23;;;5.90;;
5077;SDS011;2557;51.390;7.494;2023-07-31T06:45:55;16.20;;;6.67;;
5077;SDS011;2557;51.390;7.494;2023-07-31T06:48:21;6.47;;;4.93;;
5077;SDS011;2557;51.390;7.494;2023-07-31T06:50:47;9.63;;;5.93;;
5077;SDS011;2557;51.390;7.494;2023-07-31T06:53:13;8.87;;;5.23;;
5077;SDS011;2557;51.390;7.494;2023-07-31T06:55:39;8.53;;;5.10;;
5077;SDS011;2557;51.390;7.494;2023-07-31T06:58:05;7.23;;;5.50;;
5077;SDS011;2557;51.390;7.494;2023-07-31T07:00:31;7.97;;;5.90;;
5077;SDS011;2557;51.390;7.494;2023-07-31T07:02:58;11.60;;;6.20;;
5077;SDS011;2557;51.390;7.494;2023-07-31T07:05:24;10.80;;;5.27;;
5077;SDS011;2557;51.390;7.494;2023-07-31T07:07:50;6.90;;;5.03;;
5077;SDS011;2557;51.390;7.494;2023-07-31T07:10:17;7.10;;;5.20;;
5077;SDS011;2557;51.390;7.494;2023-07-31T07:12:43;13.50;;;5.20;;
5077;SDS011;2557;51.390;7.494;2023-07-31T07:15:09;7.30;;;6.30;;
5077;SDS011;2557;51.390;7.494;2023-07-31T07:17:35;7.97;;;5.30;;
5077;SDS011;2557;51.390;7.494;2023-07-31T07:20:01;10.03;;;4.70;;
5077;SDS011;2557;51.390;7.494;2023-07-31T07:22:28;6.50;;;5.10;;
5077;SDS011;2557;51.390;7.494;2023-07-31T07:24:54;6.43;;;5.30;;
5077;SDS011;2557;51.390;7.494;2023-07-31T07:27:21;6.10;;;4.13;;
5077;SDS011;2557;51.390;7.494;2023-07-31T07:29:47;10.67;;;5.37;;
5077;SDS011;2557;51.390;7.494;2023-07-31T07:32:13;5.60;;;4.60;;
5077;SDS011;2557;51.390;7.494;2023-07-31T07:34:39;7.97;;;5.10;;
5077;SDS011;2557;51.390;7.494;2023-07-31T07:37:05;7.60;;;5.73;;
5077;SDS011;2557;51.390;7.494;2023-07-31T07:39:31;7.27;;;5.40;;
5077;SDS011;2557;51.390;7.494;2023-07-31T07:41:57;4.97;;;4.57;;
5077;SDS011;2557;51.390;7.494;2023-07-31T07:44:23;6.40;;;5.80;;
5077;SDS011;2557;51.390;7.494;2023-07-31T07:46:49;5.80;;;4.40;;
5077;SDS011;2557;51.390;7.494;2023-07-31T07:49:15;6.90;;;4.70;;
5077;SDS011;2557;51.390;7.494;2023-07-31T07:51:41;6.43;;;5.23;;
5077;SDS011;2557;51.390;7.494;2023-07-31T07:54:07;7.30;;;5.00;;
5077;SDS011;2557;51.390;7.494;2023-07-31T07:56:33;7.53;;;5.70;;
5077;SDS011;2557;51.390;7.494;2023-07-31T07:59:01;6.73;;;5.03;;
5077;SDS011;2557;51.390;7.494;2023-07-31T08:01:27;10.23;;;5.47;;
5077;SDS011;2557;51.390;7.494;2023-07-31T08:03:53;8.70;;;5.10;;
5077;SDS011;2557;51.390;7.494;2023-07-31T08:06:19;7.50;;;5.93;;
5077;SDS011;2557;51.390;7.494;2023-07-31T08:08:45;8.77;;;5.33;;
5077;SDS011;2557;51.390;7.494;2023-07-31T08:11:11;6.83;;;5.60;;
5077;SDS011;2557;51.390;7.494;2023-07-31T08:13:37;6.57;;;5.00;;
5077;SDS011;2557;51.390;7.494;2023-07-31T08:16:03;7.37;;;5.47;;
5077;SDS011;2557;51.390;7.494;2023-07-31T08:18:30;8.00;;;5.50;;
5077;SDS011;2557;51.390;7.494;2023-07-31T08:20:57;7.90;;;5.80;;
5077;SDS011;2557;51.390;7.494;2023-07-31T08:23:23;11.00;;;5.03;;
5077;SDS011;2557;51.390;7.494;2023-07-31T08:25:49;9.10;;;6.10;;
5077;SDS011;2557;51.390;7.494;2023-07-31T08:28:16;5.70;;;5.20;;
5077;SDS011;2557;51.390;7.494;2023-07-31T08:30:42;6.93;;;4.53;;
5077;SDS011;2557;51.390;7.494;2023-07-31T08:33:08;7.37;;;5.63;;
5077;SDS011;2557;51.390;7.494;2023-07-31T08:35:34;9.47;;;5.50;;
5077;SDS011;2557;51.390;7.494;2023-07-31T08:38:00;5.07;;;3.87;;
5077;SDS011;2557;51.390;7.494;2023-07-31T08:40:26;7.10;;;4.60;;
5077;SDS011;2557;51.390;7.494;2023-07-31T08:42:53;5.43;;;4.53;;
5077;SDS011;2557;51.390;7.494;2023-07-31T08:45:21;4.63;;;3.50;;
5077;SDS011;2557;51.390;7.494;2023-07-31T08:47:50;4.90;;;4.10;;
5077;SDS011;2557;51.390;7.494;2023-07-31T08:50:17;8.57;;;4.27;;
5077;SDS011;2557;51.390;7.494;2023-07-31T08:52:44;6.30;;;3.67;;
5077;SDS011;2557;51.390;7.494;2023-07-31T08:55:10;3.97;;;3.53;;
5077;SDS011;2557;51.390;7.494;2023-07-31T08:57:37;4.67;;;4.30;;
5077;SDS011;2557;51.390;7.494;2023-07-31T09:00:08;4.13;;;3.83;;
5077;SDS011;2557;51.390;7.494;2023-07-31T09:02:37;4.77;;;3.80;;
5077;SDS011;2557;51.390;7.494;2023-07-31T09:05:05;3.80;;;3.50;;
5077;SDS011;2557;51.390;7.494;2023-07-31T09:07:33;8.10;;;3.53;;
5077;SDS011;2557;51.390;7.494;2023-07-31T09:10:00;4.30;;;3.33;;
5077;SDS011;2557;51.390;7.494;2023-07-31T09:12:26;3.40;;;3.07;;
5077;SDS011;2557;51.390;7.494;2023-07-31T09:14:52;4.70;;;3.10;;
5077;SDS011;2557;51.390;7.494;2023-07-31T09:17:28;3.40;;;3.10;;
5077;SDS011;2557;51.390;7.494;2023-07-31T09:19:55;3.60;;;3.30;;
5077;SDS011;2557;51.390;7.494;2023-07-31T09:22:34;5.53;;;2.93;;
5077;SDS011;2557;51.390;7.494;2023-07-31T09:27:59;3.87;;;3.53;;
5077;SDS011;2557;51.390;7.494;2023-07-31T09:30:25;4.70;;;3.30;;
5077;SDS011;2557;51.390;7.494;2023-07-31T09:32:52;3.37;;;3.17;;
5077;SDS011;2557;51.390;7.494;2023-07-31T09:35:32;4.43;;;3.50;;
5077;SDS011;2557;51.390;7.494;2023-07-31T09:38:19;3.30;;;3.00;;
5077;SDS011;2557;51.390;7.494;2023-07-31T09:40:46;6.90;;;3.13;;
5077;SDS011;2557;51.390;7.494;2023-07-31T09:43:13;3.50;;;3.20;;
5077;SDS011;2557;51.390;7.494;2023-07-31T09:45:40;5.03;;;4.03;;
5077;SDS011;2557;51.390;7.494;2023-07-31T09:48:06;4.93;;;4.00;;
5077;SDS011;2557;51.390;7.494;2023-07-31T09:50:34;6.63;;;4.43;;
5077;SDS011;2557;51.390;7.494;2023-07-31T09:53:01;4.00;;;3.70;;
5077;SDS011;2557;51.390;7.494;2023-07-31T09:55:27;5.00;;;4.50;;
5077;SDS011;2557;51.390;7.494;2023-07-31T09:57:56;6.00;;;3.93;;
5077;SDS011;2557;51.390;7.494;2023-07-31T10:00:23;4.77;;;3.83;;
5077;SDS011;2557;51.390;7.494;2023-07-31T10:02:52;6.37;;;3.70;;
5077;SDS011;2557;51.390;7.494;2023-07-31T10:05:19;3.30;;;2.83;;
5077;SDS011;2557;51.390;7.494;2023-07-31T10:07:46;2.97;;;2.77;;
5077;SDS011;2557;51.390;7.494;2023-07-31T10:10:15;4.00;;;3.33;;
5077;SDS011;2557;51.390;7.494;2023-07-31T10:12:41;4.00;;;3.20;;
5077;SDS011;2557;51.390;7.494;2023-07-31T10:15:09;3.10;;;2.50;;
5077;SDS011;2557;51.390;7.494;2023-07-31T10:17:35;4.20;;;2.90;;
5077;SDS011;2557;51.390;7.494;2023-07-31T10:20:02;3.00;;;2.80;;
5077;SDS011;2557;51.390;7.494;2023-07-31T10:22:30;3.23;;;2.93;;
5077;SDS011;2557;51.390;7.494;2023-07-31T10:24:57;5.27;;;3.20;;
5077;SDS011;2557;51.390;7.494;2023-07-31T10:27:23;5.17;;;3.40;;
5077;SDS011;2557;51.390;7.494;2023-07-31T10:29:49;2.67;;;2.47;;
5077;SDS011;2557;51.390;7.494;2023-07-31T10:32:16;2.67;;;2.33;;
5077;SDS011;2557;51.390;7.494;2023-07-31T10:34:42;2.60;;;2.40;;
5077;SDS011;2557;51.390;7.494;2023-07-31T10:37:27;2.90;;;2.70;;
5077;SDS011;2557;51.390;7.494;2023-07-31T10:44:56;3.20;;;2.70;;
5077;SDS011;2557;51.390;7.494;2023-07-31T10:47:23;2.23;;;2.13;;
5077;SDS011;2557;51.390;7.494;2023-07-31T10:49:49;5.83;;;2.53;;
5077;SDS011;2557;51.390;7.494;2023-07-31T10:52:19;3.03;;;2.50;;
5077;SDS011;2557;51.390;7.494;2023-07-31T10:54:47;2.80;;;2.60;;
5077;SDS011;2557;51.390;7.494;2023-07-31T10:57:20;2.70;;;2.30;;
5077;SDS011;2557;51.390;7.494;2023-07-31T10:59:46;3.10;;;2.80;;
5077;SDS011;2557;51.390;7.494;2023-07-31T11:02:27;2.60;;;2.40;;
5077;SDS011;2557;51.390;7.494;2023-07-31T11:05:05;3.10;;;2.60;;
5077;SDS011;2557;51.390;7.494;2023-07-31T11:07:47;2.80;;;2.60;;
5077;SDS011;2557;51.390;7.494;2023-07-31T11:10:16;2.83;;;2.63;;
5077;SDS011;2557;51.390;7.494;2023-07-31T11:12:42;2.77;;;2.57;;
5077;SDS011;2557;51.390;7.494;2023-07-31T11:15:08;3.60;;;3.27;;
5077;SDS011;2557;51.390;7.494;2023-07-31T11:17:38;3.00;;;2.80;;
5077;SDS011;2557;51.390;7.494;2023-07-31T11:20:04;3.20;;;3.00;;
5077;SDS011;2557;51.390;7.494;2023-07-31T11:22:30;3.90;;;3.17;;
5077;SDS011;2557;51.390;7.494;2023-07-31T11:24:56;3.40;;;3.20;;
5077;SDS011;2557;51.390;7.494;2023-07-31T11:27:26;3.30;;;3.00;;
5077;SDS011;2557;51.390;7.494;2023-07-31T11:29:53;6.80;;;3.67;;
5077;SDS011;2557;51.390;7.494;2023-07-31T11:32:19;3.20;;;2.90;;
5077;SDS011;2557;51.390;7.494;2023-07-31T11:34:54;4.10;;;2.90;;
5077;SDS011;2557;51.390;7.494;2023-07-31T11:37:20;3.80;;;3.50;;
5077;SDS011;2557;51.390;7.494;2023-07-31T11:40:01;4.20;;;3.80;;
5077;SDS011;2557;51.390;7.494;2023-07-31T11:42:28;4.53;;;4.03;;
5077;SDS011;2557;51.390;7.494;2023-07-31T11:44:54;4.37;;;3.93;;
5077;SDS011;2557;51.390;7.494;2023-07-31T11:47:20;6.13;;;3.60;;
5077;SDS011;2557;51.390;7.494;2023-07-31T11:49:46;4.07;;;3.47;;
5077;SDS011;2557;51.390;7.494;2023-07-31T11:52:13;4.03;;;3.20;;
5077;SDS011;2557;51.390;7.494;2023-07-31T11:54:39;4.37;;;3.37;;
5077;SDS011;2557;51.390;7.494;2023-07-31T11:57:06;5.17;;;3.73;;
5077;SDS011;2557;51.390;7.494;2023-07-31T11:59:32;4.07;;;3.73;;
5077;SDS011;2557;51.390;7.494;2023-07-31T12:01:58;4.60;;;3.57;;
5077;SDS011;2557;51.390;7.494;2023-07-31T12:04:24;4.03;;;3.63;;
5077;SDS011;2557;51.390;7.494;2023-07-31T12:06:52;7.43;;;3.70;;
5077;SDS011;2557;51.390;7.494;2023-07-31T12:09:18;4.53;;;4.13;;
5077;SDS011;2557;51.390;7.494;2023-07-31T12:11:45;6.23;;;4.00;;
5077;SDS011;2557;51.390;7.494;2023-07-31T12:14:24;4.10;;;3.70;;
5077;SDS011;2557;51.390;7.494;2023-07-31T12:16:57;4.47;;;3.60;;
5077;SDS011;2557;51.390;7.494;2023-07-31T12:19:27;4.20;;;3.90;;
5077;SDS011;2557;51.390;7.494;2023-07-31T12:21:54;3.80;;;3.43;;
5077;SDS011;2557;51.390;7.494;2023-07-31T12:24:20;4.20;;;3.80;;
5077;SDS011;2557;51.390;7.494;2023-07-31T12:26:47;4.03;;;3.60;;
5077;SDS011;2557;51.390;7.494;2023-07-31T12:29:14;3.90;;;3.50;;
5077;SDS011;2557;51.390;7.494;2023-07-31T12:31:41;4.87;;;3.40;;
5077;SDS011;2557;51.390;7.494;2023-07-31T12:34:17;3.90;;;3.60;;
5077;SDS011;2557;51.390;7.494;2023-07-31T12:36:43;5.50;;;3.90;;
5077;SDS011;2557;51.390;7.494;2023-07-31T12:39:09;5.83;;;3.47;;
5077;SDS011;2557;51.390;7.494;2023-07-31T12:41:35;5.63;;;3.40;;
5077;SDS011;2557;51.390;7.494;2023-07-31T12:44:02;5.53;;;3.30;;
5077;SDS011;2557;51.390;7.494;2023-07-31T12:46:28;5.90;;;3.10;;
5077;SDS011;2557;51.390;7.494;2023-07-31T12:48:54;3.50;;;3.20;;
5077;SDS011;2557;51.390;7.494;2023-07-31T12:51:20;5.87;;;3.23;;
5077;SDS011;2557;51.390;7.494;2023-07-31T12:53:46;4.33;;;2.87;;
5077;SDS011;2557;51.390;7.494;2023-07-31T12:56:12;4.63;;;3.10;;
5077;SDS011;2557;51.390;7.494;2023-07-31T12:58:38;8.57;;;2.50;;
5077;SDS011;2557;51.390;7.494;2023-07-31T13:01:04;4.30;;;2.87;;
5077;SDS011;2557;51.390;7.494;2023-07-31T13:03:31;5.23;;;2.97;;
5077;SDS011;2557;51.390;7.494;2023-07-31T13:05:57;3.10;;;2.70;;
5077;SDS011;2557;51.390;7.494;2023-07-31T13:08:23;5.20;;;2.60;;
5077;SDS011;2557;51.390;7.494;2023-07-31T13:10:49;2.83;;;2.63;;
5077;SDS011;2557;51.390;7.494;2023-07-31T13:13:15;3.40;;;2.53;;
5077;SDS011;2557;51.390;7.494;2023-07-31T13:15:41;3.37;;;2.93;;
5077;SDS011;2557;51.390;7.494;2023-07-31T13:18:07;4.07;;;3.07;;
5077;SDS011;2557;51.390;7.494;2023-07-31T13:20:33;3.33;;;2.60;;
5077;SDS011;2557;51.390;7.494;2023-07-31T13:22:59;2.67;;;2.47;;
5077;SDS011;2557;51.390;7.494;2023-07-31T13:25:25;2.63;;;2.43;;
5077;SDS011;2557;51.390;7.494;2023-07-31T13:27:52;3.27;;;2.80;;
5077;SDS011;2557;51.390;7.494;2023-07-31T13:30:18;2.80;;;2.47;;
5077;SDS011;2557;51.390;7.494;2023-07-31T13:32:44;2.77;;;2.27;;
5077;SDS011;2557;51.390;7.494;2023-07-31T13:35:10;2.77;;;2.57;;
5077;SDS011;2557;51.390;7.494;2023-07-31T13:37:37;2.53;;;2.30;;
5077;SDS011;2557;51.390;7.494;2023-07-31T13:40:03;2.30;;;2.10;;
5077;SDS011;2557;51.390;7.494;2023-07-31T13:42:32;2.40;;;2.13;;
5077;SDS011;2557;51.390;7.494;2023-07-31T13:44:58;2.53;;;2.33;;
5077;SDS011;2557;51.390;7.494;2023-07-31T13:47:25;5.47;;;2.83;;
5077;SDS011;2557;51.390;7.494;2023-07-31T13:49:51;2.63;;;2.40;;
5077;SDS011;2557;51.390;7.494;2023-07-31T13:52:17;2.83;;;2.60;;
5077;SDS011;2557;51.390;7.494;2023-07-31T13:54:43;2.33;;;2.23;;
5077;SDS011;2557;51.390;7.494;2023-07-31T13:57:09;2.87;;;2.63;;
5077;SDS011;2557;51.390;7.494;2023-07-31T13:59:35;3.50;;;2.73;;
5077;SDS011;2557;51.390;7.494;2023-07-31T14:02:02;3.67;;;3.37;;
5077;SDS011;2557;51.390;7.494;2023-07-31T14:04:28;3.67;;;3.37;;
5077;SDS011;2557;51.390;7.494;2023-07-31T14:06:55;3.63;;;3.33;;
5077;SDS011;2557;51.390;7.494;2023-07-31T14:09:21;3.93;;;3.53;;
5077;SDS011;2557;51.390;7.494;2023-07-31T14:11:47;5.90;;;3.97;;
5077;SDS011;2557;51.390;7.494;2023-07-31T14:14:13;3.80;;;3.50;;
5077;SDS011;2557;51.390;7.494;2023-07-31T14:16:39;4.80;;;4.10;;
5077;SDS011;2557;51.390;7.494;2023-07-31T14:19:05;4.77;;;3.93;;
5077;SDS011;2557;51.390;7.494;2023-07-31T14:21:33;7.10;;;4.60;;
5077;SDS011;2557;51.390;7.494;2023-07-31T14:23:59;4.10;;;3.80;;
5077;SDS011;2557;51.390;7.494;2023-07-31T14:26:25;4.80;;;4.30;;
5077;SDS011;2557;51.390;7.494;2023-07-31T14:28:51;4.83;;;4.30;;
5077;SDS011;2557;51.390;7.494;2023-07-31T14:31:17;4.70;;;4.40;;
5077;SDS011;2557;51.390;7.494;2023-07-31T14:33:43;10.00;;;4.60;;
5077;SDS011;2557;51.390;7.494;2023-07-31T14:36:09;4.07;;;3.60;;
5077;SDS011;2557;51.390;7.494;2023-07-31T14:38:35;4.50;;;4.10;;
5077;SDS011;2557;51.390;7.494;2023-07-31T14:41:01;5.20;;;4.70;;
5077;SDS011;2557;51.390;7.494;2023-07-31T14:43:27;4.87;;;4.20;;
5077;SDS011;2557;51.390;7.494;2023-07-31T14:45:53;3.97;;;3.67;;
5077;SDS011;2557;51.390;7.494;2023-07-31T14:48:22;5.13;;;4.73;;
5077;SDS011;2557;51.390;7.494;2023-07-31T14:50:48;4.33;;;3.57;;
5077;SDS011;2557;51.390;7.494;2023-07-31T14:53:14;4.60;;;4.00;;
5077;SDS011;2557;51.390;7.494;2023-07-31T14:55:40;4.07;;;3.70;;
5077;SDS011;2557;51.390;7.494;2023-07-31T14:58:06;8.90;;;3.87;;
5077;SDS011;2557;51.390;7.494;2023-07-31T15:00:32;3.40;;;3.10;;
5077;SDS011;2557;51.390;7.494;2023-07-31T15:02:58;4.53;;;3.57;;
5077;SDS011;2557;51.390;7.494;2023-07-31T15:05:24;5.10;;;4.20;;
5077;SDS011;2557;51.390;7.494;2023-07-31T15:07:50;3.47;;;3.17;;
5077;SDS011;2557;51.390;7.494;2023-07-31T15:10:16;4.87;;;3.87;;
5077;SDS011;2557;51.390;7.494;2023-07-31T15:12:42;7.70;;;4.20;;
5077;SDS011;2557;51.390;7.494;2023-07-31T15:15:09;3.57;;;3.30;;
5077;SDS011;2557;51.390;7.494;2023-07-31T15:17:35;3.97;;;3.30;;
5077;SDS011;2557;51.390;7.494;2023-07-31T15:20:01;3.90;;;3.60;;
5077;SDS011;2557;51.390;7.494;2023-07-31T15:22:27;5.33;;;3.17;;
5077;SDS011;2557;51.390;7.494;2023-07-31T15:24:53;4.83;;;3.43;;